Latest Weather Observations for Leonora Airport

IDW60801

Issued at 4:33 pm WST Sunday 23 July 2017 (issued every 30 minutes, with the page automatically refreshed every 10 minutes)

About weather observations | Map of weather stations | Latest weather observations for WA | Other Formats
Station Details ID: 012241 Name: LEONORA AERO Lat: -28.88 Lon: 121.32 Height: 370.0 m
Data from the previous 72 hours. | See also: Recent months at Leonora Airport
Date/Time
WST
Temp
°C
App
Temp
°C
Dew
Point
°C
Rel
Hum
%
Delta-T
°C
Wind Press
QNH
hPa
Press
MSL
hPa
Rain since
9am
mm
Dir  Spd
km/h
Gust
km/h
Spd
kts
Gust
kts
23/04:30pm 21.7 15.6 0.3 24 9.8 WNW 22 33 12 18 1016.7 1016.6 0.0
23/04:00pm 22.0 15.1 -0.1 23 10.1 WNW 26 39 14 21 1016.9 1016.8 0.0
23/03:30pm 22.3 15.0 0.2 23 10.2 WNW 28 43 15 23 1016.9 1016.8 0.0
23/03:00pm 22.3 15.8 0.2 23 10.2 W 24 33 13 18 1016.8 1016.7 0.0
23/02:30pm 22.4 17.4 1.4 25 9.9 WNW 17 26 9 14 1017.0 1016.9 0.0
23/02:00pm 21.9 16.5 1.0 25 9.7 NW 19 35 10 19 1017.2 1017.1 0.0
23/01:30pm 22.3 16.3 0.8 24 10.0 WNW 22 33 12 18 1017.6 1017.5 0.0
23/01:00pm 22.1 16.5 1.2 25 9.8 NW 20 33 11 18 1017.9 1017.8 0.0
23/12:30pm 21.1 16.8 0.9 26 9.3 WNW 13 26 7 14 1018.5 1018.3 0.0
23/12:00pm 20.5 16.2 0.9 27 9.0 WNW 13 20 7 11 1019.1 1019.0 0.0
23/11:30am 19.9 15.2 0.9 28 8.7 NW 15 22 8 12 1019.9 1019.8 0.0
23/11:00am 19.4 17.0 1.9 31 8.1 W 4 9 2 5 1020.7 1020.6 0.0
23/10:30am 18.4 16.5 2.7 35 7.4 NNW 2 7 1 4 1021.2 1021.1 0.0
23/10:00am 17.1 15.6 3.1 39 6.5 CALM 0 6 0 3 1021.3 1021.2 0.0
23/09:30am 14.5 12.5 2.1 43 5.6 NW 2 7 1 4 1021.5 1021.4 0.0
23/09:00am 12.8 11.2 2.6 50 4.5 CALM 0 0 0 0 1021.5 1021.4 0.0
23/08:30am 11.0 9.1 2.8 57 3.6 SE 2 6 1 3 1021.4 1021.3 0.0
23/08:00am 7.5 5.8 1.8 67 2.4 CALM 0 2 0 1 1021.4 1021.3 0.0
23/07:30am 5.3 2.8 1.8 78 1.4 S 4 9 2 5 1021.3 1021.2 0.0
23/07:00am 3.3 1.3 -0.2 78 1.3 CALM 0 0 0 0 1021.0 1020.9 0.0
23/06:30am 3.3 0.6 0.0 79 1.3 NE 4 7 2 4 1020.8 1020.7 0.0
23/06:00am 3.8 1.8 0.0 76 1.5 CALM 0 6 0 3 1020.6 1020.5 0.0
23/05:30am 4.1 2.2 0.3 76 1.5 CALM 0 0 0 0 1020.5 1020.4 0.0
23/05:00am 5.0 2.4 0.8 74 1.7 NNE 4 7 2 4 1020.3 1020.2 0.0
23/04:30am 5.9 2.4 1.4 73 1.8 NE 9 11 5 6 1020.0 1019.9 0.0
23/04:00am 5.1 2.5 1.2 76 1.6 NE 4 9 2 5 1020.1 1020.0 0.0
23/03:30am 5.4 3.5 0.8 72 1.8 CALM 0 0 0 0 1020.2 1020.1 0.0
23/03:00am 6.5 3.5 2.0 73 1.9 NE 7 9 4 5 1020.2 1020.1 0.0
23/02:30am 5.8 3.6 0.8 70 2.0 ESE 2 7 1 4 1020.1 1020.0 0.0
23/02:00am 6.5 3.6 1.2 69 2.2 S 6 6 3 3 1020.2 1020.1 0.0
23/01:30am 6.8 4.7 1.5 69 2.2 S 2 6 1 3 1020.5 1020.4 0.0
23/01:00am 7.1 4.3 2.0 70 2.1 S 6 9 3 5 1020.6 1020.5 0.0
23/12:30am 7.5 4.1 2.0 68 2.3 SW 9 11 5 6 1020.5 1020.4 0.0
23/12:00am 8.4 4.7 2.6 67 2.5 SSW 11 17 6 9 1020.7 1020.6 0.0
 
Date/Time
WST
Temp
°C
App
Temp
°C
Dew
Point
°C
Rel
Hum
%
Delta-T
°C
Wind Press
QNH
hPa
Press
MSL
hPa
Rain since
9am
mm
Dir  Spd
km/h
Gust
km/h
Spd
kts
Gust
kts
22/11:30pm 8.3 6.7 2.3 66 2.6 CALM 0 0 0 0 1020.5 1020.4 0.0
22/11:00pm 8.4 6.8 2.2 65 2.6 CALM 0 0 0 0 1020.6 1020.5 0.0
22/10:30pm 9.6 6.9 2.9 63 2.9 NE 6 7 3 4 1020.7 1020.6 0.0
22/10:00pm 9.9 7.3 3.0 62 3.0 NE 6 7 3 4 1020.7 1020.6 0.0
22/09:30pm 9.7 7.1 3.0 63 2.9 NE 6 7 3 4 1020.6 1020.5 0.0
22/09:00pm 9.2 7.5 1.9 60 3.1 CALM 0 0 0 0 1020.5 1020.4 0.0
22/08:30pm 9.8 8.1 1.9 58 3.4 CALM 0 0 0 0 1020.4 1020.3 0.0
22/08:00pm 11.0 9.5 2.8 57 3.6 CALM 0 0 0 0 1020.3 1020.2 0.0
22/07:30pm 11.5 9.9 2.5 54 4.0 CALM 0 0 0 0 1020.1 1020.0 0.0
22/07:00pm 12.4 10.9 3.1 53 4.2 CALM 0 0 0 0 1020.0 1019.9 0.0
22/06:30pm 13.5 11.8 2.1 46 5.1 CALM 0 0 0 0 1019.6 1019.5 0.0
22/06:00pm 15.2 13.6 2.4 42 5.8 CALM 0 0 0 0 1019.3 1019.2 0.0
22/05:30pm 17.6 14.8 3.1 38 6.8 W 7 9 4 5 1018.9 1018.8 0.0
22/05:00pm 19.2 15.6 3.0 34 7.7 WNW 11 19 6 10 1018.7 1018.5 0.0
22/04:30pm 19.8 15.9 3.5 34 7.9 WNW 13 20 7 11 1018.5 1018.3 0.0
22/04:00pm 19.8 14.5 3.1 33 8.0 WNW 20 26 11 14 1018.5 1018.3 0.0
22/03:30pm 19.9 14.8 4.0 35 7.7 WNW 20 30 11 16 1018.3 1018.1 0.0
22/03:00pm 19.8 14.4 2.6 32 8.1 NW 20 33 11 18 1018.3 1018.1 0.0
22/02:30pm 19.9 14.8 4.0 35 7.7 WNW 20 35 11 19 1018.1 1018.0 0.0
22/02:00pm 19.9 15.2 5.2 38 7.3 W 19 28 10 15 1018.3 1018.1 0.0
22/01:30pm 19.1 14.9 5.9 42 6.6 NW 17 28 9 15 1018.6 1018.4 0.0
22/01:00pm 18.6 13.8 5.8 43 6.4 WNW 20 30 11 16 1018.8 1018.6 0.0
22/12:30pm 18.5 14.3 5.7 43 6.4 WNW 17 30 9 16 1019.3 1019.2 0.0
22/12:00pm 18.0 13.7 5.2 43 6.3 WNW 17 28 9 15 1019.9 1019.8 0.0
22/11:30am 18.1 14.0 6.0 45 6.1 WNW 17 32 9 17 1020.4 1020.3 0.0
22/11:00am 17.6 13.6 6.8 49 5.5 NW 17 24 9 13 1020.8 1020.7 0.0
22/10:30am 16.5 13.3 6.9 53 4.8 W 13 19 7 10 1021.4 1021.3 0.0
22/10:00am 15.3 12.5 7.1 58 4.1 W 11 17 6 9 1021.4 1021.3 0.0
22/09:30am 14.4 11.7 7.2 62 3.6 W 11 19 6 10 1021.4 1021.3 0.0
22/09:00am 13.1 11.2 6.7 65 3.1 W 6 9 3 5 1021.2 1021.1 0.0
22/08:30am 10.9 9.1 5.2 68 2.7 NW 4 7 2 4 1021.2 1021.1 0.0
22/08:00am 9.3 6.6 3.9 69 2.4 W 7 9 4 5 1021.3 1021.2 0.0
22/07:30am 7.4 4.1 2.3 70 2.2 WNW 9 11 5 6 1020.8 1020.7 0.0
22/07:00am 7.4 4.3 3.5 76 1.7 NW 9 15 5 8 1020.4 1020.3 0.0
22/06:30am 6.0 3.0 2.3 77 1.5 NW 7 11 4 6 1020.1 1020.0 0.0
22/06:00am 6.7 3.8 2.6 75 1.7 WNW 7 9 4 5 1019.6 1019.5 0.0
22/05:30am 7.1 4.1 2.0 70 2.1 WNW 7 11 4 6 1019.2 1019.1 0.0
22/05:00am 8.8 5.3 3.4 69 2.4 NW 11 15 6 8 1018.8 1018.6 0.0
22/04:30am 8.2 5.4 3.1 70 2.2 NW 7 11 4 6 1018.9 1018.8 0.0
22/04:00am 8.4 5.5 2.8 68 2.4 NNW 7 9 4 5 1018.6 1018.4 0.0
22/03:30am 8.5 5.7 3.1 69 2.4 NW 7 11 4 6 1018.9 1018.8 0.0
22/03:00am 7.6 4.6 2.1 68 2.3 NW 7 11 4 6 1018.9 1018.8 0.0
22/02:30am 8.3 5.0 2.3 66 2.6 NW 9 19 5 10 1018.8 1018.6 0.0
22/02:00am 8.0 4.7 2.3 67 2.4 WNW 9 11 5 6 1018.7 1018.5 0.0
22/01:30am 9.1 5.8 2.7 64 2.8 NW 9 11 5 6 1018.8 1018.6 0.0
22/01:00am 9.4 6.1 2.7 63 2.9 NW 9 11 5 6 1018.8 1018.6 0.0
22/12:30am 10.5 7.3 3.3 61 3.2 NW 9 13 5 7 1018.7 1018.5 0.0
22/12:00am 8.9 6.0 2.5 64 2.8 NW 7 9 4 5 1018.6 1018.4 0.0
 
Date/Time
WST
Temp
°C
App
Temp
°C
Dew
Point
°C
Rel
Hum
%
Delta-T
°C
Wind Press
QNH
hPa
Press
MSL
hPa
Rain since
9am
mm
Dir  Spd
km/h
Gust
km/h
Spd
kts
Gust
kts
21/11:30pm 9.5 7.2 3.0 64 2.9 NW 4 6 2 3 1018.6 1018.4 0.0
21/11:00pm 8.8 6.7 1.9 62 2.9 NW 2 7 1 4 1018.7 1018.5 0.0
21/10:30pm 9.9 7.3 3.2 63 3.0 NNE 6 6 3 3 1018.8 1018.6 0.0
21/10:00pm 9.0 7.4 2.3 63 2.9 CALM 0 0 0 0 1018.8 1018.6 0.0
21/09:30pm 9.1 7.4 1.8 60 3.1 CALM 0 6 0 3 1018.8 1018.6 0.0
21/09:00pm 9.9 6.4 1.5 56 3.6 SW 9 11 5 6 1018.6 1018.4 0.0
21/08:30pm 11.5 8.5 2.3 53 4.0 NW 7 9 4 5 1018.3 1018.1 0.0
21/08:00pm 12.2 9.5 2.6 52 4.3 NNW 6 7 3 4 1018.0 1017.9 0.0
21/07:30pm 12.5 9.6 2.7 51 4.4 NW 7 7 4 4 1017.7 1017.6 0.0
21/07:00pm 13.4 10.2 3.2 50 4.6 NNW 9 11 5 6 1017.5 1017.4 0.0
21/06:30pm 13.8 10.6 3.0 48 4.9 NW 9 9 5 5 1017.3 1017.2 0.0
21/06:00pm 15.0 12.2 2.9 44 5.5 NW 7 9 4 5 1017.0 1016.9 0.0
21/05:30pm 16.9 13.3 3.2 40 6.4 WNW 11 15 6 8 1016.8 1016.7 0.0
21/05:00pm 18.0 12.9 3.1 37 7.0 W 19 20 10 11 1016.8 1016.7 0.0
21/04:30pm 18.7 13.6 3.3 36 7.3 W 19 28 10 15 1016.6 1016.5 0.0
21/04:00pm 18.9 12.9 3.5 36 7.4 WNW 24 35 13 19 1016.5 1016.4 0.0
21/03:30pm 19.0 13.9 4.0 37 7.3 W 20 32 11 17 1016.3 1016.1 0.0
21/03:00pm 18.9 13.0 3.9 37 7.2 WNW 24 33 13 18 1016.3 1016.1 0.0
21/02:30pm 19.0 13.6 4.4 38 7.1 W 22 30 12 16 1016.3 1016.1 0.0
21/02:00pm 18.9 14.9 5.0 40 6.8 WNW 15 24 8 13 1016.5 1016.4 0.0
21/01:30pm 18.1 13.2 5.0 42 6.4 WNW 20 35 11 19 1016.6 1016.5 0.0
21/01:00pm 18.0 12.3 4.9 42 6.4 WNW 24 33 13 18 1017.0 1016.9 0.0
21/12:30pm 16.7 11.5 5.6 48 5.5 W 22 35 12 19 1017.4 1017.3 0.0
21/12:00pm 16.9 12.1 4.6 44 5.9 WNW 19 32 10 17 1018.0 1017.9 0.0
21/11:30am 16.4 12.2 5.7 49 5.3 WNW 17 28 9 15 1018.6 1018.4 0.0
21/11:00am 15.6 11.5 6.3 54 4.6 WNW 17 24 9 13 1019.2 1019.1 0.0
21/10:30am 15.2 11.3 7.0 58 4.1 WNW 17 20 9 11 1019.2 1019.1 0.0
21/10:00am 14.6 11.1 7.2 61 3.7 WNW 15 20 8 11 1019.5 1019.4 0.0
21/09:30am 14.0 10.9 7.3 64 3.3 WNW 13 20 7 11 1019.4 1019.3 0.0
21/09:00am 13.7 11.1 7.7 67 3.0 NW 11 15 6 8 1019.2 1019.1 0.0
21/08:30am 11.8 9.3 6.7 71 2.5 NNW 9 13 5 7 1018.8 1018.6 0.0
21/08:00am 10.8 8.7 6.6 75 2.0 NNW 7 9 4 5 1018.4 1018.2 0.0
21/07:30am 9.7 7.4 5.9 77 1.8 WNW 7 9 4 5 1018.1 1018.0 0.0
21/07:00am 8.6 6.0 5.9 83 1.3 NW 9 11 5 6 1017.9 1017.8 0.0
21/06:30am 8.4 6.2 5.5 82 1.3 NNW 6 9 3 5 1017.6 1017.5 0.0
21/06:00am 8.5 6.1 5.1 79 1.5 N 7 11 4 6 1017.3 1017.2 0.0
21/05:30am 9.3 6.6 5.7 78 1.7 NW 9 13 5 7 1017.1 1017.0 0.0
21/05:00am 8.8 6.4 5.2 78 1.6 NW 7 9 4 5 1016.8 1016.7 0.0
21/04:30am 9.8 6.8 5.8 76 1.9 NW 11 15 6 8 1016.3 1016.1 0.0
21/04:00am 9.1 6.8 5.5 78 1.7 NNW 7 9 4 5 1016.2 1016.0 0.0
21/03:30am 9.4 6.2 5.2 75 1.9 NW 11 13 6 7 1016.2 1016.0 0.0
21/03:00am 8.9 6.0 4.7 75 1.9 NW 9 9 5 5 1016.0 1015.8 0.0
21/02:30am 9.8 7.0 5.0 72 2.2 NW 9 13 5 7 1016.1 1015.9 0.0
21/02:00am 10.6 7.5 5.4 70 2.4 NW 11 15 6 8 1015.9 1015.7 0.0
21/01:30am 10.3 7.9 5.1 70 2.4 NNW 7 11 4 6 1016.1 1015.9 0.0
21/01:00am 10.0 7.4 4.0 66 2.7 NW 7 7 4 4 1016.1 1015.9 0.0
21/12:30am 11.4 8.9 4.8 64 3.1 WNW 7 9 4 5 1016.1 1015.9 0.0
21/12:00am 11.8 9.3 4.5 61 3.4 NW 7 9 4 5 1016.0 1015.8 0.0
 
Date/Time
WST
Temp
°C
App
Temp
°C
Dew
Point
°C
Rel
Hum
%
Delta-T
°C
Wind Press
QNH
hPa
Press
MSL
hPa
Rain since
9am
mm
Dir  Spd
km/h
Gust
km/h
Spd
kts
Gust
kts
20/11:30pm 13.4 10.6 5.1 57 3.9 NW 9 11 5 6 1016.1 1015.9 0.0
20/11:00pm 14.5 11.0 5.6 55 4.3 WNW 13 15 7 8 1016.3 1016.1 0.0
20/10:30pm 13.6 10.7 4.5 54 4.3 NW 9 9 5 5 1016.3 1016.1 0.0
20/10:00pm 14.0 11.0 4.3 52 4.5 WNW 9 13 5 7 1016.3 1016.1 0.0
20/09:30pm 14.2 10.8 4.2 51 4.7 NW 11 13 6 7 1016.1 1015.9 0.0
20/09:00pm 13.3 10.6 3.7 52 4.4 NW 7 9 4 5 1015.9 1015.7 0.0
20/08:30pm 14.6 12.1 3.7 48 5.1 WNW 6 7 3 4 1015.8 1015.6 0.0
20/08:00pm 14.9 11.8 3.7 47 5.2 NW 9 11 5 6 1015.6 1015.4 0.0
20/07:30pm 15.9 12.1 4.0 45 5.6 NW 13 15 7 8 1015.5 1015.3 0.0
20/07:00pm 16.0 12.6 4.1 45 5.6 NW 11 15 6 8 1015.5 1015.3 0.0
20/06:30pm 15.1 12.4 3.6 46 5.4 NW 7 9 4 5 1015.1 1015.0 0.0
20/06:00pm 17.0 13.6 4.0 42 6.2 WNW 11 15 6 8 1014.6 1014.5 0.0
20/05:30pm 18.1 13.5 3.9 39 6.8 W 17 26 9 14 1014.5 1014.4 0.0
20/05:00pm 18.8 13.3 3.8 37 7.2 W 22 32 12 17 1014.2 1014.1 0.0

Other Formats:

Comma delimited format used in spreadsheet applications
http://www.bom.gov.au/fwo/IDW60801/IDW60801.94450.axf

JavaScript Object Notation format (JSON) in row-major order
http://www.bom.gov.au/fwo/IDW60801/IDW60801.94450.json